Time;durP1;ratioP1;P1;durP2;ratioP2;P2;SDS_P1;SDS_P2;PMS_P1;PMS_P2;Temp;Humidity;BMP_temperature;BMP_pressure;BME280_temperature;BME280_humidity;BME280_pressure;Samples;Min_cycle;Max_cycle;Signal;HPM_P1;HPM_P2
2023/01/15 00:02:11;;;;;;;22.90;6.20;;;9.80;99.90;;;10.06;74.59;99666.94;5094910;28;20386;-66
2023/01/15 00:04:40;;;;;;;20.77;5.82;;;9.80;99.90;;;9.89;74.13;99664.63;5094911;28;20051;-66
2023/01/15 00:07:10;;;;;;;21.38;5.75;;;9.70;99.90;;;9.87;73.17;99677.00;5094660;28;20477;-66
2023/01/15 00:09:38;;;;;;;27.43;6.97;;;9.70;99.90;;;9.88;73.33;99673.47;5094860;28;20048;-66
2023/01/15 00:12:06;;;;;;;17.73;5.88;;;9.70;99.90;;;10.03;73.67;99667.00;5094458;28;20128;-66
2023/01/15 00:14:35;;;;;;;19.67;5.97;;;9.80;99.90;;;10.04;73.82;99666.94;5094707;28;20105;-66
2023/01/15 00:17:03;;;;;;;23.67;6.05;;;9.80;99.90;;;10.08;73.60;99670.41;5076528;28;20132;-66
2023/01/15 00:19:32;;;;;;;25.48;5.82;;;9.80;99.90;;;9.45;71.25;99568.78;5094590;28;20040;-66
2023/01/15 00:22:00;;;;;;;21.67;6.10;;;9.90;99.90;;;9.98;69.14;99671.50;5094324;28;20355;-65
2023/01/15 00:30:01;;;;;;;29.27;6.25;;;9.80;99.90;;;9.97;67.92;99657.44;5094597;28;20382;-66
2023/01/15 00:32:30;;;;;;;20.52;5.63;;;9.80;99.90;;;9.83;68.29;99626.94;5076481;28;20385;-65
2023/01/15 00:34:59;;;;;;;21.05;5.85;;;9.80;99.90;;;9.94;68.50;99651.34;5094454;28;20123;-65
2023/01/15 00:37:28;;;;;;;19.58;6.07;;;9.70;99.90;;;9.85;69.38;99667.41;5076374;28;20044;-66
2023/01/15 00:39:58;;;;;;;15.43;5.40;;;9.70;99.90;;;9.94;70.17;99649.59;5093869;28;20101;-66
2023/01/15 00:42:26;;;;;;;11.43;5.05;;;9.70;99.90;;;9.96;70.20;99661.00;5094453;28;20041;-66
2023/01/15 00:44:55;;;;;;;17.60;6.00;;;9.70;99.90;;;9.92;69.95;99663.72;5075723;28;20146;-66
2023/01/15 00:47:23;;;;;;;21.30;6.32;;;9.70;99.90;;;9.86;69.94;99653.28;5094222;28;20519;-66
2023/01/15 00:49:52;;;;;;;21.63;6.85;;;9.70;99.90;;;9.90;70.26;99660.22;5093917;28;20067;-66
2023/01/15 00:52:20;;;;;;;18.95;5.45;;;9.70;99.90;;;9.82;70.84;99651.59;5075978;28;20468;-66
2023/01/15 00:54:48;;;;;;;23.13;6.78;;;9.60;99.90;;;9.69;70.72;99643.09;5094088;28;20507;-66
2023/01/15 00:57:18;;;;;;;29.15;7.07;;;9.50;99.90;;;9.64;70.65;99642.28;5075944;28;20079;-66
2023/01/15 00:59:47;;;;;;;19.55;5.22;;;9.40;99.90;;;9.62;70.88;99659.09;5094372;28;20070;-66
2023/01/15 01:02:15;;;;;;;16.50;5.82;;;9.40;99.90;;;9.49;70.85;99636.44;5094260;28;20040;-65
2023/01/15 01:04:44;;;;;;;23.45;6.20;;;9.40;99.90;;;9.66;71.07;99664.25;5094236;28;20037;-65
2023/01/15 01:07:13;;;;;;;21.00;5.88;;;9.40;99.90;;;9.62;70.83;99661.72;5093706;28;20048;-66
2023/01/15 01:09:42;;;;;;;20.92;5.90;;;9.40;99.90;;;9.56;71.48;99646.00;5093560;28;20051;-66
2023/01/15 01:12:10;;;;;;;21.95;5.90;;;9.50;99.90;;;9.67;70.98;99659.84;5093501;28;20371;-66
2023/01/15 01:14:40;;;;;;;23.35;6.20;;;9.50;99.90;;;9.65;71.10;99657.25;5093710;28;20050;-66
2023/01/15 01:17:09;;;;;;;16.88;5.55;;;9.40;99.90;;;9.68;70.93;99675.66;5093837;28;20131;-66
2023/01/15 01:19:37;;;;;;;18.73;5.95;;;9.50;99.90;;;9.61;70.38;99667.88;5093271;28;20043;-66
2023/01/15 01:22:08;;;;;;;22.63;6.20;;;9.40;99.90;;;9.67;70.59;99671.28;5093063;28;20063;-66
2023/01/15 01:24:36;;;;;;;15.88;5.75;;;9.40;99.90;;;9.69;69.85;99672.13;5093043;28;20051;-66
2023/01/15 01:27:06;;;;;;;;;;;9.40;99.90;;;9.67;69.45;99679.19;5075465;28;20051;-67
2023/01/15 01:29:35;;;;;;;19.15;5.85;;;9.50;99.90;;;9.64;69.62;99673.13;5093669;28;20007;-66
2023/01/15 01:32:05;;;;;;;15.77;5.32;;;9.50;99.90;;;9.63;69.33;99682.78;5074682;28;20036;-66
2023/01/15 01:34:35;;;;;;;18.77;5.40;;;9.40;99.90;;;9.58;68.80;99670.59;5075022;28;20532;-66
2023/01/15 01:37:03;;;;;;;15.45;5.25;;;9.40;99.90;;;9.59;68.26;99665.28;5092996;28;20040;-66
2023/01/15 01:39:33;;;;;;;23.33;5.80;;;9.40;99.90;;;9.66;69.31;99666.00;5075028;28;20078;-67
2023/01/15 01:42:01;;;;;;;17.42;5.38;;;9.40;99.90;;;9.66;70.41;99673.94;5093114;28;20043;-65
2023/01/15 01:45:03;;;;;;;22.05;5.78;;;9.40;99.90;;;9.47;69.08;99694.53;5092975;28;20066;-66
2023/01/15 01:47:34;;;;;;;19.67;5.78;;;9.30;99.90;;;8.86;69.37;99549.78;5093025;28;20039;-65
2023/01/15 01:50:09;;;;;;;20.38;5.78;;;9.40;99.90;;;9.60;69.23;99680.19;5092767;28;20444;-66
2023/01/15 01:52:45;;;;;;;17.63;5.53;;;9.40;99.90;;;9.65;70.04;99686.28;5074841;28;20052;-66
2023/01/15 01:55:17;;;;;;;18.67;5.80;;;9.40;99.90;;;9.47;69.13;99670.78;5074581;28;20052;-66
2023/01/15 01:57:48;;;;;;;14.60;5.10;;;9.40;99.90;;;9.48;68.77;99683.09;5092901;28;20052;-66
2023/01/15 02:00:19;;;;;;;21.15;6.63;;;9.30;99.90;;;9.49;69.27;99671.63;5074679;28;20101;-66
2023/01/15 02:02:50;;;;;;;23.13;6.17;;;9.30;99.90;;;9.49;69.03;99676.03;5092897;28;20043;-67
2023/01/15 02:05:28;;;;;;;19.80;5.38;;;9.30;99.90;;;9.55;69.75;99673.28;5092474;28;20624;-66
2023/01/15 02:07:56;;;;;;;19.73;6.07;;;9.30;99.90;;;9.51;70.20;99676.88;5092782;28;20396;-66
2023/01/15 02:10:25;;;;;;;30.17;6.25;;;9.30;99.90;;;9.61;70.60;99674.03;5092452;28;20425;-66
2023/01/15 02:13:00;;;;;;;20.85;6.03;;;9.40;99.90;;;9.54;70.17;99669.75;5074568;28;20048;-66
2023/01/15 02:15:36;;;;;;;21.02;6.18;;;9.40;99.90;;;9.55;69.54;99682.06;5074660;28;20080;-66
2023/01/15 02:18:16;;;;;;;18.75;5.88;;;9.40;99.90;;;9.45;69.67;99654.13;5093049;28;20386;-65
2023/01/15 02:20:51;;;;;;;20.20;5.75;;;9.30;99.90;;;9.60;69.82;99674.91;5075321;28;20044;-66
2023/01/15 02:23:33;;;;;;;25.95;6.25;;;9.40;99.90;;;9.59;70.01;99670.56;5075303;28;20370;-65
2023/01/15 02:26:26;;;;;;;24.75;5.78;;;9.40;99.90;;;9.51;70.05;99667.19;5093218;28;20044;-65
2023/01/15 02:28:59;;;;;;;22.88;6.35;;;9.40;99.90;;;9.61;70.48;99676.69;5092015;28;20055;-65
2023/01/15 02:31:34;;;;;;;18.48;6.03;;;9.40;99.90;;;9.74;70.35;99680.81;5075115;28;20554;-66
2023/01/15 02:34:10;;;;;;;18.85;6.10;;;9.50;99.90;;;9.72;69.77;99669.41;5076346;28;20056;-66
2023/01/15 02:36:53;;;;;;;15.38;5.30;;;9.50;99.90;;;9.54;69.40;99664.47;5079127;28;20151;-66
2023/01/15 02:39:28;;;;;;;19.23;5.82;;;9.50;99.90;;;9.63;68.99;99669.59;5096099;28;20046;-65
2023/01/15 02:42:02;;;;;;;15.40;5.63;;;9.50;99.90;;;9.56;68.05;99665.31;5079045;28;20071;-65
2023/01/15 02:44:41;;;;;;;15.45;5.40;;;9.50;99.90;;;9.48;67.27;99667.28;5078355;28;20078;-64
2023/01/15 02:47:13;;;;;;;14.52;5.32;;;9.40;99.90;;;9.62;66.30;99674.91;5078174;28;20044;-60
2023/01/15 02:49:45;;;;;;;22.77;6.55;;;9.50;99.90;;;9.63;66.11;99664.31;5078267;28;20105;-60
2023/01/15 02:52:23;;;;;;;14.57;5.18;;;9.50;99.90;;;9.51;66.51;99646.06;5096214;28;20480;-61
2023/01/15 02:54:58;;;;;;;17.45;5.00;;;9.50;99.90;;;9.64;66.84;99666.03;5096282;28;20047;-60
2023/01/15 02:57:32;;;;;;;17.73;5.57;;;9.50;99.90;;;9.55;67.07;99658.31;5077914;28;20055;-61
2023/01/15 03:00:07;;;;;;;19.35;5.88;;;9.40;99.90;;;9.56;67.07;99646.00;5095862;28;20097;-60
2023/01/15 03:02:41;;;;;;;22.35;5.43;;;9.40;99.90;;;9.54;67.85;99650.44;5077929;28;20051;-60
2023/01/15 03:05:18;;;;;;;18.58;6.53;;;9.40;99.90;;;9.60;69.06;99667.00;5077734;28;20055;-60
2023/01/15 03:07:52;;;;;;;25.27;6.18;;;9.40;99.90;;;9.58;69.93;99663.53;5077862;28;20040;-60
2023/01/15 03:10:30;;;;;;;21.30;6.30;;;9.40;99.90;;;9.60;70.12;99648.53;5077970;28;20537;-60
2023/01/15 03:13:02;;;;;;;18.92;6.40;;;9.40;99.90;;;9.49;70.78;99647.88;5096015;28;20040;-61
2023/01/15 03:18:45;;;;;;;19.02;5.55;;;9.30;99.90;;;9.62;68.95;99662.56;5094606;28;20449;-61
2023/01/15 03:21:21;;;;;;;19.23;6.13;;;9.40;99.90;;;9.58;68.55;99647.69;5094670;28;20048;-61
2023/01/15 03:23:55;;;;;;;12.70;5.50;;;9.40;99.90;;;9.60;67.77;99626.56;5077660;28;20040;-60
2023/01/15 03:26:27;;;;;;;15.70;5.15;;;9.50;99.90;;;9.53;66.21;99648.69;5077413;28;20478;-61
2023/01/15 03:28:59;;;;;;;21.45;5.75;;;9.40;99.90;;;9.54;65.91;99646.00;5077763;28;20044;-60
2023/01/15 03:31:30;;;;;;;21.30;5.72;;;9.40;99.90;;;9.59;66.22;99644.16;5077561;28;20055;-60
2023/01/15 03:33:59;;;;;;;;;;;9.40;99.90;;;9.27;67.30;99606.13;5078117;28;20094;-60
2023/01/15 03:36:28;;;;;;;20.40;6.10;;;9.30;99.90;;;9.40;68.85;99632.22;5077738;28;19920;-60
2023/01/15 03:39:01;;;;;;;22.70;5.75;;;9.30;99.90;;;9.50;69.76;99638.19;5077812;28;20043;-60
2023/01/15 03:42:06;;;;;;;18.40;5.43;;;9.30;99.90;;;9.43;70.09;99645.34;5077626;28;20397;-60
2023/01/15 03:44:41;;;;;;;19.15;5.68;;;9.30;99.90;;;9.34;70.51;99637.63;5077283;28;20479;-60
2023/01/15 03:47:28;;;;;;;19.42;6.10;;;9.20;99.90;;;9.27;70.09;99624.59;5094580;28;20040;-60
2023/01/15 03:50:05;;;;;;;18.10;5.20;;;9.20;99.90;;;9.26;70.99;99641.28;5094000;28;20044;-60
2023/01/15 03:52:45;;;;;;;20.80;5.72;;;9.10;99.90;;;9.36;70.42;99625.28;5094044;28;20105;-60
2023/01/15 03:55:20;;;;;;;20.10;5.43;;;9.10;99.90;;;9.22;70.62;99600.91;5076917;28;20486;-60
2023/01/15 03:58:13;;;;;;;18.13;5.80;;;9.10;99.90;;;9.27;70.62;99614.03;5076944;28;20051;-61
2023/01/15 04:00:51;;;;;;;14.70;5.00;;;9.10;99.90;;;9.27;70.50;99625.44;5076894;28;20056;-60
2023/01/15 04:03:27;;;;;;;17.52;5.40;;;9.10;99.90;;;9.03;69.32;99597.78;5076813;28;20087;-61
2023/01/15 04:06:00;;;;;;;19.77;5.47;;;9.00;99.90;;;9.16;69.19;99616.88;5093546;28;20139;-60
2023/01/15 04:08:34;;;;;;;21.70;5.80;;;9.00;99.90;;;9.22;69.52;99629.06;5076759;28;20398;-60
2023/01/15 04:11:03;;;;;;;18.33;5.65;;;9.00;99.90;;;9.28;69.35;99631.59;5094605;28;20492;-60
2023/01/15 04:13:37;;;;;;;17.77;5.32;;;9.10;99.90;;;9.23;69.54;99629.06;5093622;28;20457;-62
2023/01/15 04:16:08;;;;;;;21.27;6.70;;;9.00;99.90;;;9.25;70.19;99624.63;5076448;28;20382;-60
2023/01/15 04:18:38;;;;;;;22.45;5.68;;;9.00;99.90;;;9.20;70.59;99626.47;5076418;28;20052;-60
2023/01/15 04:21:06;;;;;;;14.80;5.30;;;9.00;99.90;;;9.20;70.51;99641.41;5094520;28;20048;-60
2023/01/15 04:23:35;;;;;;;19.88;5.70;;;9.00;99.90;;;9.23;70.44;99639.63;5076183;28;20625;-60
2023/01/15 04:26:03;;;;;;;17.50;5.40;;;9.10;99.90;;;9.18;70.66;99646.72;5094143;28;20463;-60
2023/01/15 04:28:32;;;;;;;21.75;5.35;;;9.00;99.90;;;9.23;70.92;99623.78;5094444;28;20139;-60
2023/01/15 04:31:00;;;;;;;23.27;5.72;;;9.10;99.90;;;8.68;70.66;99523.75;5094100;28;20485;-60
2023/01/15 04:33:29;;;;;;;19.20;5.47;;;9.10;99.90;;;9.31;70.60;99631.53;5075825;28;20066;-61
2023/01/15 04:36:01;;;;;;;15.65;5.80;;;9.10;99.90;;;9.20;69.17;99636.13;5094334;28;20054;-60
2023/01/15 04:38:29;;;;;;;14.02;5.20;;;9.10;99.90;;;9.22;68.51;99639.63;5094565;28;20040;-61
2023/01/15 04:46:35;;;;;;;13.32;4.90;;;9.00;99.90;;;9.02;67.13;99609.22;5094019;28;20055;-60
2023/01/15 04:49:05;;;;;;;16.85;5.05;;;8.90;99.90;;;8.82;65.19;99607.84;5093827;28;20048;-60
2023/01/15 04:51:35;;;;;;;15.60;4.70;;;8.80;99.90;;;9.14;64.86;99631.84;5093618;28;20436;-60
2023/01/15 04:54:05;;;;;;;16.17;4.93;;;8.90;99.90;;;9.21;63.80;99615.03;5094080;28;20066;-60
2023/01/15 04:56:37;;;;;;;17.02;4.75;;;9.00;99.90;;;9.23;63.76;99617.63;5093644;28;20430;-61
2023/01/15 04:59:06;;;;;;;18.27;6.10;;;9.00;99.90;;;9.12;62.90;99675.84;5092907;28;20048;-61
2023/01/15 05:01:35;;;;;;;20.00;5.40;;;9.00;99.90;;;9.09;62.39;99633.72;5093462;28;20110;-60
2023/01/15 05:04:05;;;;;;;15.10;5.22;;;8.90;99.90;;;9.12;62.11;99633.66;5093746;28;20109;-60
2023/01/15 05:06:35;;;;;;;15.60;5.20;;;9.00;99.90;;;9.10;62.16;99616.97;5093280;28;20044;-60
2023/01/15 05:09:05;;;;;;;18.95;4.80;;;8.90;99.90;;;8.97;62.01;99633.94;5093319;28;20044;-60
2023/01/15 05:11:36;;;;;;;12.82;5.07;;;8.90;99.90;;;9.04;62.30;99614.44;5075386;28;20066;-60
2023/01/15 05:14:06;;;;;;;17.50;5.40;;;8.90;99.90;;;8.96;62.85;99619.88;5093597;28;20072;-60
2023/01/15 05:16:37;;;;;;;16.02;5.30;;;8.80;99.90;;;9.05;62.73;99624.13;5092107;28;20050;-60
2023/01/15 05:19:07;;;;;;;;;;;8.80;99.90;;;8.88;61.39;99600.66;5093605;28;20036;-60
2023/01/15 05:21:41;;;;;;;13.73;5.07;;;8.80;99.90;;;9.02;61.19;99614.47;5093141;28;19920;-60
2023/01/15 05:24:14;;;;;;;18.20;5.88;;;8.90;99.90;;;8.95;62.23;99607.59;5093330;28;20047;-60
2023/01/15 05:26:44;;;;;;;16.52;5.07;;;8.80;99.90;;;9.05;62.52;99625.00;5074796;28;20498;-60
2023/01/15 05:29:12;;;;;;;20.73;6.53;;;8.90;99.90;;;8.95;63.17;99612.00;5093050;28;20458;-60
2023/01/15 05:31:43;;;;;;;17.42;5.30;;;8.90;99.90;;;8.96;62.98;99621.66;5093306;28;20151;-60
2023/01/15 05:34:13;;;;;;;14.15;5.43;;;8.80;99.90;;;8.93;62.77;99608.50;5093498;28;20047;-60
2023/01/15 05:36:43;;;;;;;16.70;5.10;;;8.80;99.90;;;8.80;61.50;99599.97;5092835;28;20051;-60
2023/01/15 05:39:11;;;;;;;16.45;6.20;;;8.80;99.90;;;8.90;61.46;99619.97;5074980;28;20476;-60
2023/01/15 05:41:49;;;;;;;13.55;5.47;;;8.80;99.90;;;8.88;62.28;99616.50;5093127;28;20498;-60
2023/01/15 05:44:21;;;;;;;14.85;5.38;;;8.80;99.90;;;8.94;62.31;99615.53;5093066;28;20044;-60
2023/01/15 05:46:51;;;;;;;15.40;5.05;;;8.90;99.90;;;9.12;62.07;99644.19;5074825;28;20051;-60
2023/01/15 05:49:22;;;;;;;18.05;5.38;;;9.00;99.90;;;9.12;62.24;99622.25;5093038;28;20515;-60
2023/01/15 05:51:54;;;;;;;19.73;5.55;;;9.00;99.90;;;8.88;60.93;99620.91;5074880;28;20082;-60
2023/01/15 05:54:26;;;;;;;18.08;5.45;;;8.80;99.90;;;8.77;60.40;99620.22;5093035;28;20547;-60
2023/01/15 05:56:55;;;;;;;20.40;5.10;;;8.70;99.90;;;8.72;61.46;99622.06;5092722;28;20091;-61
2023/01/15 05:59:26;;;;;;;17.52;5.28;;;8.60;99.90;;;8.79;61.77;99621.06;5074770;28;20078;-63
2023/01/15 06:01:56;;;;;;;14.93;5.03;;;8.60;99.90;;;8.68;62.92;99612.47;5091759;28;20051;-64
2023/01/15 06:04:25;;;;;;;16.63;4.82;;;8.50;99.90;;;8.68;63.20;99615.09;5074939;28;20059;-63
2023/01/15 06:06:57;;;;;;;18.02;5.53;;;8.50;99.90;;;8.54;63.03;99598.66;5092562;28;20036;-60
2023/01/15 06:09:26;;;;;;;22.17;5.47;;;8.50;99.90;;;8.78;62.67;99620.22;5092869;28;20093;-62
2023/01/15 06:11:55;;;;;;;18.40;5.45;;;8.60;99.90;;;8.49;62.18;99580.31;5092878;28;20109;-60
2023/01/15 06:14:24;;;;;;;18.83;6.15;;;8.60;99.90;;;8.63;62.69;99598.50;5092667;28;20507;-60
2023/01/15 06:16:53;;;;;;;18.92;5.50;;;8.60;99.90;;;8.53;62.08;99589.91;5092701;28;20509;-60
2023/01/15 06:19:21;;;;;;;19.98;5.70;;;8.60;99.90;;;8.75;62.74;99624.66;5092887;28;20068;-60
2023/01/15 06:21:50;;;;;;;16.75;5.07;;;8.60;99.90;;;8.78;63.39;99629.88;5093055;28;20048;-60
2023/01/15 06:24:20;;;;;;;18.85;5.85;;;8.60;99.90;;;8.72;63.96;99641.41;5092882;28;20489;-60
2023/01/15 06:26:48;;;;;;;26.70;5.53;;;8.60;99.90;;;8.72;64.57;99640.53;5092463;28;20044;-60
2023/01/15 06:29:19;;;;;;;18.25;5.85;;;8.60;99.90;;;8.74;65.18;99630.81;5092422;28;20491;-60
2023/01/15 06:31:48;;;;;;;14.88;5.07;;;8.60;99.90;;;8.70;64.58;99626.50;5092656;28;20059;-60
2023/01/15 06:34:17;;;;;;;27.60;5.22;;;8.60;99.90;;;8.70;64.87;99643.19;5092858;28;20048;-60
2023/01/15 06:36:45;;;;;;;15.73;5.32;;;8.50;99.90;;;8.15;64.51;99579.06;5092626;28;20521;-60
2023/01/15 06:39:14;;;;;;;17.20;5.25;;;8.40;99.90;;;8.63;64.19;99604.63;5092211;28;20504;-60
2023/01/15 06:47:21;;;;;;;15.27;5.25;;;8.40;99.90;;;8.35;64.96;99590.19;5092418;28;20478;-63
2023/01/15 06:49:53;;;;;;;24.38;5.57;;;8.40;99.90;;;8.53;65.16;99624.16;5074531;28;20048;-63
2023/01/15 06:52:23;;;;;;;12.25;4.70;;;8.40;99.90;;;8.47;65.57;99615.47;5092414;28;20040;-63
2023/01/15 06:54:52;;;;;;;13.32;5.50;;;8.30;99.90;;;8.43;64.99;99600.59;5092697;28;20048;-63
2023/01/15 06:57:22;;;;;;;19.05;4.85;;;8.30;99.90;;;8.45;65.13;99610.22;5092422;28;20052;-63
2023/01/15 06:59:50;;;;;;;14.57;5.20;;;8.30;99.90;;;8.14;65.28;99583.47;5092279;28;20040;-63
2023/01/15 07:02:20;;;;;;;16.80;5.47;;;8.20;99.90;;;8.29;65.48;99606.09;5091324;28;20040;-64
2023/01/15 07:04:49;;;;;;;16.95;5.38;;;8.20;99.90;;;8.40;65.94;99605.94;5092083;28;20082;-62
2023/01/15 07:07:19;;;;;;;19.13;5.70;;;8.20;99.90;;;8.39;66.11;99612.06;5091937;28;20032;-62
2023/01/15 07:09:48;;;;;;;16.98;5.40;;;8.20;99.90;;;8.40;66.77;99603.28;5092357;28;20052;-63
2023/01/15 07:12:17;;;;;;;19.35;5.30;;;8.30;99.90;;;8.42;67.01;99614.69;5092009;28;20079;-63
2023/01/15 07:14:47;;;;;;;20.23;5.40;;;8.30;99.90;;;8.39;67.07;99604.19;5073942;28;20460;-63
2023/01/15 07:17:15;;;;;;;18.58;5.40;;;8.30;99.90;;;8.37;66.61;99603.34;5092204;28;20044;-64
2023/01/15 07:19:44;;;;;;;16.63;5.40;;;8.20;99.90;;;8.33;66.87;99596.38;5074014;28;20094;-63
2023/01/15 07:22:13;;;;;;;21.00;5.93;;;8.20;99.90;;;8.47;67.57;99624.25;5094997;28;20048;-63
2023/01/15 07:24:41;;;;;;;18.35;5.68;;;8.30;99.90;;;8.49;67.58;99633.00;5095493;28;20089;-63
2023/01/15 07:27:09;;;;;;;16.60;5.47;;;8.30;99.90;;;8.35;67.32;99610.38;5095570;28;20070;-63
2023/01/15 07:29:38;;;;;;;17.00;5.70;;;8.30;99.90;;;8.31;66.62;99614.84;5095613;28;20176;-63
2023/01/15 07:32:08;;;;;;;20.42;6.13;;;8.20;99.90;;;8.48;67.44;99633.03;5095397;28;20042;-63
2023/01/15 07:34:36;;;;;;;22.15;5.60;;;8.30;99.90;;;8.45;67.54;99618.13;5095259;28;20120;-62
2023/01/15 07:37:05;;;;;;;26.60;6.38;;;8.30;99.90;;;8.45;68.43;99602.31;5095079;28;20067;-60
2023/01/15 07:39:33;;;;;;;30.88;7.28;;;8.30;99.90;;;8.53;68.40;99608.34;5095103;28;20032;-60
2023/01/15 07:50:23;;;;;;;23.48;5.90;;;8.30;99.90;;;8.45;67.81;99662.91;5077462;28;20454;-60
2023/01/15 07:52:52;;;;;;;23.65;5.18;;;8.30;99.90;;;8.02;68.08;99536.25;5077600;28;20044;-60
2023/01/15 07:55:21;;;;;;;26.48;5.78;;;8.30;99.90;;;8.47;67.99;99607.56;5095080;28;20118;-60
2023/01/15 07:57:51;;;;;;;26.08;6.13;;;8.30;99.90;;;8.54;67.66;99601.28;5094829;28;20047;-60
2023/01/15 08:00:23;;;;;;;20.13;5.40;;;8.40;99.90;;;8.30;67.78;99583.25;5095005;28;20119;-60
2023/01/15 08:02:53;;;;;;;22.95;5.90;;;8.40;99.90;;;8.57;68.14;99595.97;5094928;28;20097;-60
2023/01/15 08:05:21;;;;;;;21.93;5.70;;;8.40;99.90;;;8.55;67.87;99597.78;5095343;28;20036;-60
2023/01/15 08:07:49;;;;;;;14.77;5.68;;;8.40;99.90;;;8.33;67.75;99559.50;5093503;28;20306;-60
2023/01/15 08:10:19;;;;;;;21.05;5.55;;;8.50;99.90;;;8.71;67.54;99615.06;5095250;28;20040;-60
2023/01/15 08:15:46;;;;;;;25.52;6.03;;;8.70;99.90;;;9.10;67.33;99620.50;5047204;28;20097;-60
2023/01/15 08:18:17;;;;;;;18.48;5.40;;;8.90;99.90;;;9.16;67.38;99616.88;5094748;28;20123;-60
2023/01/15 08:20:46;;;;;;;19.23;5.68;;;9.00;99.90;;;9.16;66.92;99582.56;5094531;28;20079;-60
2023/01/15 08:23:14;;;;;;;24.63;5.72;;;9.00;99.90;;;8.99;66.74;99584.66;5094433;28;20389;-60
2023/01/15 08:25:45;;;;;;;30.25;5.93;;;9.00;99.90;;;9.09;67.54;99615.25;5094715;28;20051;-60
2023/01/15 08:28:14;;;;;;;27.40;6.10;;;9.00;99.90;;;9.19;67.86;99613.31;5094276;28;20498;-60
2023/01/15 08:30:42;;;;;;;18.52;5.40;;;9.00;99.90;;;9.13;68.14;99626.59;5094455;28;20047;-60
2023/01/15 08:33:11;;;;;;;16.45;5.95;;;9.00;99.90;;;9.02;67.76;99610.97;5094090;28;20052;-60
2023/01/15 08:35:41;;;;;;;22.45;5.97;;;8.80;99.90;;;9.14;68.13;99617.81;5094110;28;20043;-60
2023/01/15 08:38:09;;;;;;;27.63;5.47;;;8.90;99.90;;;9.13;68.22;99616.06;5094193;28;20424;-61
2023/01/15 08:40:57;;;;;;;25.40;5.22;;;8.90;99.90;;;8.97;67.64;99597.00;5094066;28;20040;-61
2023/01/15 08:43:27;;;;;;;21.73;5.80;;;9.00;99.90;;;9.20;67.88;99613.28;5094417;28;20070;-60
2023/01/15 08:45:57;;;;;;;23.17;5.57;;;9.00;99.90;;;8.98;67.73;99618.06;5094094;28;20044;-60
2023/01/15 08:48:27;;;;;;;23.13;5.63;;;8.90;99.90;;;9.19;67.84;99634.41;5094021;28;20040;-62
2023/01/15 08:50:57;;;;;;;27.00;5.95;;;9.00;99.90;;;9.17;67.94;99607.19;5093997;28;20056;-60
2023/01/15 08:53:28;;;;;;;23.63;6.22;;;9.00;99.90;;;9.19;68.28;99635.28;5094180;28;20073;-60
2023/01/15 08:55:56;;;;;;;;;;;9.00;99.90;;;9.04;68.11;99615.31;5094247;28;20078;-60
2023/01/15 08:58:28;;;;;;;21.05;5.95;;;8.90;99.90;;;8.82;67.96;99607.84;5093706;28;19942;-60
2023/01/15 09:00:56;;;;;;;21.48;5.75;;;8.90;99.90;;;8.78;69.02;99601.75;5093749;28;20401;-60
2023/01/15 09:03:25;;;;;;;20.95;5.15;;;8.80;99.90;;;8.91;69.43;99605.91;5093823;28;20102;-60
2023/01/15 09:06:00;;;;;;;24.05;5.60;;;8.80;99.90;;;8.83;69.72;99610.44;5093966;28;20063;-60
2023/01/15 09:08:29;;;;;;;24.38;5.68;;;8.80;99.90;;;8.84;69.41;99611.31;5093287;28;20370;-60
2023/01/15 09:10:58;;;;;;;24.13;6.38;;;8.70;99.90;;;8.90;69.32;99603.31;5093546;28;20047;-61
2023/01/15 09:13:28;;;;;;;25.05;6.07;;;8.70;99.90;;;8.94;69.33;99615.53;5093596;28;20044;-60
2023/01/15 09:15:59;;;;;;;18.67;5.78;;;8.70;99.90;;;8.97;69.91;99612.84;5093689;28;20048;-60
2023/01/15 09:18:28;;;;;;;25.10;6.40;;;8.80;99.90;;;8.91;70.16;99599.75;5075385;28;20135;-61
2023/01/15 09:20:56;;;;;;;21.40;5.60;;;8.80;99.90;;;8.79;70.27;99614.03;5093759;28;20067;-60
2023/01/15 09:23:27;;;;;;;20.85;5.47;;;8.70;99.90;;;8.94;70.15;99613.75;5093744;28;20160;-60
2023/01/15 09:25:58;;;;;;;17.88;5.55;;;8.70;99.90;;;8.26;69.27;99513.09;5093497;28;20075;-60
2023/01/15 09:28:27;;;;;;;21.70;5.80;;;8.80;99.90;;;8.85;69.47;99594.59;5093321;28;20050;-60
2023/01/15 09:30:56;;;;;;;21.77;5.55;;;8.80;99.90;;;9.00;69.34;99616.28;5093039;28;20048;-61
2023/01/15 09:33:24;;;;;;;17.55;5.85;;;8.80;99.90;;;8.92;69.42;99607.63;5093172;28;20040;-61
2023/01/15 09:35:53;;;;;;;17.10;5.35;;;8.80;99.90;;;9.02;70.02;99616.25;5093121;28;20044;-61
2023/01/15 09:38:22;;;;;;;22.55;6.30;;;8.80;99.90;;;9.01;70.32;99609.25;5093423;28;20040;-62
2023/01/15 09:40:56;;;;;;;28.58;5.60;;;8.80;99.90;;;9.02;70.22;99608.31;5092896;28;20048;-62
2023/01/15 09:43:39;;;;;;;24.85;5.20;;;8.80;99.90;;;9.00;69.61;99623.34;5092516;28;20051;-61
2023/01/15 09:46:23;;;;;;;21.02;5.65;;;8.80;99.90;;;8.79;69.86;99587.66;5092869;28;20550;-62
2023/01/15 09:49:03;;;;;;;23.38;6.05;;;8.90;99.90;;;9.16;69.83;99630.06;5092769;28;20131;-61
2023/01/15 09:51:43;;;;;;;23.30;6.47;;;8.90;99.90;;;8.97;69.71;99571.53;5092760;28;20043;-61
2023/01/15 09:54:38;;;;;;;25.77;5.90;;;9.00;99.90;;;8.84;69.35;99584.97;5092807;28;20043;-62
2023/01/15 09:57:12;;;;;;;22.40;5.85;;;9.00;99.90;;;9.20;69.25;99652.84;5092700;28;20437;-61
2023/01/15 09:59:43;;;;;;;27.75;6.03;;;9.00;99.90;;;9.24;69.13;99630.78;5092716;28;20139;-61
2023/01/15 10:02:23;;;;;;;26.95;7.43;;;9.00;99.90;;;9.15;69.12;99609.88;5092519;28;20097;-62
2023/01/15 10:04:56;;;;;;;23.17;6.23;;;9.10;99.90;;;9.15;67.92;99593.16;5092512;28;20044;-61
2023/01/15 10:07:33;;;;;;;19.80;5.22;;;9.20;99.90;;;9.44;67.67;99639.19;5092653;28;20054;-61
2023/01/15 10:10:10;;;;;;;24.35;5.65;;;9.30;99.90;;;9.48;67.22;99651.44;5092663;28;20374;-61
2023/01/15 10:12:43;;;;;;;18.05;5.40;;;9.30;99.90;;;9.64;67.12;99652.84;5092646;28;20048;-62
2023/01/15 10:15:22;;;;;;;20.10;5.90;;;9.40;99.90;;;9.39;66.77;99619.09;5092536;28;20047;-62
2023/01/15 10:17:54;;;;;;;20.17;5.07;;;9.40;99.90;;;9.42;65.35;99646.28;5074594;28;20581;-62
2023/01/15 10:21:02;;;;;;;22.02;6.10;;;9.30;99.90;;;9.48;66.80;99653.19;5092445;28;20490;-61
2023/01/15 10:23:38;;;;;;;20.60;5.57;;;9.30;99.90;;;9.42;67.32;99654.19;5082919;28;20058;-62
2023/01/15 10:26:25;;;;;;;24.73;6.45;;;9.30;99.90;;;9.53;67.67;99660.13;5092449;28;20044;-62
2023/01/15 10:29:02;;;;;;;33.33;6.40;;;9.30;99.90;;;9.59;68.27;99670.56;5074564;28;20397;-61
2023/01/15 10:31:53;;;;;;;22.20;6.00;;;9.50;99.90;;;9.72;68.12;99665.88;5092316;28;20044;-61
2023/01/15 10:34:56;;;;;;;19.05;6.32;;;9.50;99.90;;;9.43;68.14;99632.16;5074567;28;20481;-61
2023/01/15 10:37:31;;;;;;;22.73;5.53;;;9.40;99.90;;;9.29;68.04;99607.81;5092471;28;20378;-62
2023/01/15 10:40:23;;;;;;;25.08;6.63;;;9.40;99.90;;;9.37;68.17;99634.06;5092459;28;20044;-62
2023/01/15 10:43:03;;;;;;;17.85;5.30;;;9.30;99.90;;;9.31;67.80;99642.94;5092732;28;20040;-62
2023/01/15 10:45:38;;;;;;;20.25;5.82;;;9.20;99.90;;;9.32;68.84;99639.44;5092366;28;20051;-61
2023/01/15 10:48:14;;;;;;;16.70;5.20;;;9.20;99.90;;;9.41;69.08;99652.44;5092365;28;20164;-61
2023/01/15 10:50:43;;;;;;;27.23;6.25;;;9.20;99.90;;;9.36;68.97;99645.50;5092288;28;20044;-61
2023/01/15 10:53:19;;;;;;;23.02;6.25;;;9.20;99.90;;;9.39;69.49;99651.59;5092460;28;20048;-61
2023/01/15 10:55:53;;;;;;;29.30;6.40;;;9.30;99.90;;;9.26;69.17;99617.56;5094810;28;20055;-61
2023/01/15 10:58:30;;;;;;;25.50;6.85;;;9.30;99.90;;;9.61;68.20;99621.25;5096305;28;20032;-62
2023/01/15 11:01:05;;;;;;;24.25;5.47;;;9.40;99.90;;;9.80;67.14;99649.00;5095842;28;20048;-61
2023/01/15 11:03:38;;;;;;;18.90;5.15;;;9.70;99.90;;;10.08;66.18;99651.06;5096199;28;20044;-61
2023/01/15 11:06:13;;;;;;;25.80;5.97;;;9.90;99.90;;;10.07;65.19;99650.16;5096236;28;20048;-62
2023/01/15 11:08:44;;;;;;;21.35;5.68;;;9.90;99.90;;;9.73;64.95;99599.88;5096296;28;20044;-62
2023/01/15 11:19:35;;;;;;;15.45;5.18;;;10.00;99.90;;;9.92;65.27;99643.47;5096604;28;20040;-62
2023/01/15 11:20:28;;;;;;;21.85;5.97;;;10.20;99.90;;;10.38;64.46;99659.19;5096126;28;20039;-61
2023/01/15 11:22:57;;;;;;;21.40;5.90;;;10.20;99.90;;;10.36;65.39;99670.69;5078231;28;20059;-62
2023/01/15 11:25:28;;;;;;;24.33;6.18;;;10.20;99.90;;;10.26;65.56;99655.97;5095991;28;20043;-61
2023/01/15 11:27:59;;;;;;;25.27;6.40;;;10.10;99.90;;;10.06;65.90;99645.81;5096303;28;20048;-61